Time;durP1;ratioP1;P1;durP2;ratioP2;P2;SDS_P1;SDS_P2;PMS_P1;PMS_P2;Temp;Humidity;BMP_temperature;BMP_pressure;BME280_temperature;BME280_humidity;BME280_pressure;Samples;Min_cycle;Max_cycle;Signal;HPM_P1;HPM_P2
2024/01/21 00:01:16;;;;;;;15.45;8.00;;;;;;;;;;5027526;28;20455;-63
2024/01/21 00:03:43;;;;;;;12.40;6.75;;;;;;;;;;5023682;28;20132;-64
2024/01/21 00:06:09;;;;;;;11.13;7.15;;;;;;;;;;5022713;28;20402;-64
2024/01/21 00:08:35;;;;;;;13.95;7.53;;;;;;;;;;5027226;28;20049;-63
2024/01/21 00:11:01;;;;;;;12.90;7.60;;;;;;;;;;5002805;28;20067;-64
2024/01/21 00:13:28;;;;;;;12.05;6.72;;;;;;;;;;5015958;28;20041;-63
2024/01/21 00:15:54;;;;;;;13.80;6.97;;;;;;;;;;5014796;28;20069;-64
2024/01/21 00:18:20;;;;;;;13.25;6.90;;;;;;;;;;5004584;28;20111;-64
2024/01/21 00:20:46;;;;;;;12.73;6.60;;;;;;;;;;5028361;28;20204;-63
2024/01/21 00:23:12;;;;;;;12.30;6.60;;;;;;;;;;5021658;28;20101;-63
2024/01/21 00:25:38;;;;;;;11.27;6.30;;;;;;;;;;5021339;28;20168;-64
2024/01/21 00:28:04;;;;;;;13.00;7.70;;;;;;;;;;5013285;28;20551;-63
2024/01/21 00:30:30;;;;;;;13.10;6.80;;;;;;;;;;5010475;28;20042;-63
2024/01/21 00:32:56;;;;;;;11.48;6.50;;;0.60;99.90;;;;;;5015746;28;20049;-63
2024/01/21 00:35:22;;;;;;;12.93;7.13;;;;;;;;;;5074761;23;20050;-61
2024/01/21 00:37:47;;;;;;;13.63;7.38;;;0.60;99.90;;;;;;5005511;28;20034;-61
2024/01/21 00:40:13;;;;;;;13.68;7.10;;;;;;;;;;5006503;28;20524;-61
2024/01/21 00:42:39;;;;;;;14.80;7.25;;;;;;;;;;5010724;28;20042;-60
2024/01/21 00:45:06;;;;;;;13.73;6.88;;;;;;;;;;4999170;28;20041;-60
2024/01/21 00:47:32;;;;;;;13.85;7.22;;;;;;;;;;5005218;28;20065;-60
2024/01/21 00:49:57;;;;;;;11.32;6.30;;;0.40;99.90;;;;;;5010154;28;20462;-61
2024/01/21 00:52:23;;;;;;;13.35;7.20;;;;;;;;;;5007953;28;20045;-61
2024/01/21 00:54:49;;;;;;;12.88;6.28;;;0.40;99.90;;;;;;4980016;28;20053;-61
2024/01/21 00:57:15;;;;;;;11.27;6.35;;;;;;;;;;5004221;28;20046;-61
2024/01/21 00:59:42;;;;;;;13.18;6.75;;;;;;;;;;4982119;28;20694;-61
2024/01/21 01:02:08;;;;;;;11.57;5.88;;;0.70;99.90;;;;;;4999465;28;20041;-61
2024/01/21 01:04:34;;;;;;;11.88;6.28;;;;;;;;;;5004735;28;20045;-60
2024/01/21 01:07:00;;;;;;;11.98;5.82;;;;;;;;;;5007759;28;21548;-61
2024/01/21 01:09:26;;;;;;;10.63;5.55;;;;;;;;;;5000504;28;20042;-60
2024/01/21 01:11:52;;;;;;;11.18;6.20;;;;;;;;;;5008600;28;20150;-61
2024/01/21 01:14:18;;;;;;;10.52;6.25;;;;;;;;;;5012092;28;20409;-61
2024/01/21 01:16:43;;;;;;;9.75;6.05;;;0.60;99.90;;;;;;5013538;28;20042;-61
2024/01/21 01:19:09;;;;;;;10.40;5.85;;;0.50;99.90;;;;;;5012221;28;20037;-61
2024/01/21 01:21:35;;;;;;;14.40;7.28;;;0.50;99.90;;;;;;5012294;28;20072;-62
2024/01/21 01:24:01;;;;;;;11.25;6.28;;;;;;;;;;5016339;28;20119;-61
2024/01/21 01:26:27;;;;;;;11.65;6.13;;;;;;;;;;5012007;28;20134;-61
2024/01/21 01:28:53;;;;;;;10.80;5.90;;;;;;;;;;5012135;28;20041;-61
2024/01/21 01:31:19;;;;;;;11.63;6.78;;;;;;;;;;4991807;28;20474;-60
2024/01/21 01:33:46;;;;;;;9.80;5.90;;;;;;;;;;5012608;28;20045;-61
2024/01/21 01:36:12;;;;;;;10.40;6.28;;;;;;;;;;5014024;28;20048;-61
2024/01/21 01:38:38;;;;;;;11.15;5.80;;;;;;;;;;5011698;28;20038;-61
2024/01/21 01:41:04;;;;;;;15.45;6.70;;;;;;;;;;5007618;28;20525;-61
2024/01/21 01:43:30;;;;;;;11.77;5.53;;;;;;;;;;5011797;28;20041;-61
2024/01/21 01:46:00;;;;;;;11.27;6.05;;;;;;;;;;5011099;28;20592;-61
2024/01/21 01:48:26;;;;;;;12.38;5.90;;;;;;;;;;5010673;28;20288;-61
2024/01/21 01:50:53;;;;;;;9.73;5.28;;;;;;;;;;5011071;28;20096;-60
2024/01/21 01:53:19;;;;;;;10.25;6.13;;;;;;;;;;5008848;28;20053;-60
2024/01/21 01:55:45;;;;;;;10.88;6.50;;;;;;;;;;5006999;28;20085;-61
2024/01/21 01:58:15;;;;;;;9.80;5.68;;;;;;;;;;5010794;28;20038;-61
2024/01/21 02:00:41;;;;;;;12.13;6.35;;;;;;;;;;5010804;28;20048;-61
2024/01/21 02:03:08;;;;;;;10.10;6.10;;;0.50;99.90;;;;;;5012425;28;20037;-61
2024/01/21 02:05:34;;;;;;;10.00;5.43;;;0.70;99.90;;;;;;5011703;28;20029;-60
2024/01/21 02:08:00;;;;;;;8.93;4.60;;;;;;;;;;5009926;28;20044;-59
2024/01/21 02:10:29;;;;;;;9.32;5.10;;;;;;;;;;5012940;28;20049;-60
2024/01/21 02:12:55;;;;;;;10.98;5.85;;;0.70;99.90;;;;;;4993343;28;20119;-60
2024/01/21 02:15:21;;;;;;;9.00;4.93;;;;;;;;;;5010369;28;20517;-60
2024/01/21 02:17:47;;;;;;;9.38;4.80;;;0.60;99.90;;;;;;5010460;28;20046;-59
2024/01/21 02:20:13;;;;;;;9.75;4.72;;;;;;;;;;5007642;28;20029;-60
2024/01/21 02:22:40;;;;;;;8.02;5.00;;;;;;;;;;5006394;28;20042;-60
2024/01/21 02:25:07;;;;;;;10.00;5.25;;;;;;;;;;5006745;28;20084;-60
2024/01/21 02:27:33;;;;;;;9.38;4.90;;;;;;;;;;5007437;28;20049;-59
2024/01/21 02:29:59;;;;;;;7.97;4.60;;;;;;;;;;5008716;28;21098;-59
2024/01/21 02:32:26;;;;;;;9.10;4.55;;;;;;;;;;5009386;28;20123;-60
2024/01/21 02:34:52;;;;;;;9.63;5.07;;;;;;;;;;5010802;28;20129;-60
2024/01/21 02:37:18;;;;;;;9.60;4.97;;;;;;;;;;5009523;28;20049;-60
2024/01/21 02:39:45;;;;;;;9.30;4.45;;;;;;;;;;4992408;28;20524;-59
2024/01/21 02:42:11;;;;;;;8.90;5.10;;;;;;;;;;5008876;28;20053;-59
2024/01/21 02:44:37;;;;;;;10.25;5.10;;;;;;;;;;5010947;28;20045;-59
2024/01/21 02:47:04;;;;;;;11.60;5.97;;;;;;;;;;5007679;28;20054;-60
2024/01/21 02:49:30;;;;;;;9.88;5.32;;;;;;;;;;5013279;28;20077;-59
2024/01/21 02:51:56;;;;;;;12.15;5.05;;;;;;;;;;5005362;28;20041;-59
2024/01/21 02:54:22;;;;;;;11.68;5.03;;;;;;;;;;5007067;28;20370;-60
2024/01/21 02:56:49;;;;;;;9.40;4.88;;;;;;;;;;5009675;28;20036;-60
2024/01/21 02:59:15;;;;;;;8.52;5.00;;;;;;;;;;5010309;28;20044;-59
2024/01/21 03:01:41;;;;;;;10.65;5.47;;;;;;;;;;5013035;28;20046;-59
2024/01/21 03:04:11;;;;;;;10.10;5.10;;;;;;;;;;5010545;28;20034;-60
2024/01/21 03:06:37;;;;;;;9.30;5.13;;;;;;;;;;5012355;28;20188;-60
2024/01/21 03:09:03;;;;;;;8.80;5.03;;;;;;;;;;5012396;28;20505;-60
2024/01/21 03:11:29;;;;;;;10.90;5.63;;;;;;;;;;4989383;28;20046;-59
2024/01/21 03:13:55;;;;;;;8.63;5.15;;;;;;;;;;5003942;28;20068;-59
2024/01/21 03:16:20;;;;;;;7.97;4.68;;;0.80;99.90;;;;;;4990497;28;20588;-59
2024/01/21 03:18:46;;;;;;;9.52;5.05;;;0.70;99.90;;;;;;5012715;28;20104;-59
2024/01/21 03:21:12;;;;;;;12.10;4.88;;;;;;;;;;5006283;28;20053;-60
2024/01/21 03:23:38;;;;;;;9.68;4.75;;;;;;;;;;5008788;28;20124;-60
2024/01/21 03:26:04;;;;;;;9.20;4.50;;;;;;;;;;5008288;28;20463;-60
2024/01/21 03:28:30;;;;;;;9.30;4.93;;;;;;;;;;5009793;28;20398;-59
2024/01/21 03:30:57;;;;;;;10.13;4.70;;;;;;;;;;5002813;28;20050;-60
2024/01/21 03:33:23;;;;;;;10.52;5.40;;;;;;;;;;5000610;28;20045;-60
2024/01/21 03:35:49;;;;;;;10.90;4.88;;;;;;;;;;5000712;28;20293;-58
2024/01/21 03:38:15;;;;;;;9.07;4.80;;;;;;;;;;5001313;28;20050;-60
2024/01/21 03:40:41;;;;;;;9.18;4.88;;;;;;;;;;4973290;28;20042;-60
2024/01/21 03:43:07;;;;;;;8.48;4.40;;;;;;;;;;5009740;28;20340;-61
2024/01/21 03:45:33;;;;;;;9.52;5.35;;;;;;;;;;5005880;28;20100;-57
2024/01/21 03:47:59;;;;;;;10.77;5.20;;;;;;;;;;5003070;28;20041;-60
2024/01/21 03:50:25;;;;;;;8.73;5.20;;;;;;;;;;5005148;28;20068;-60
2024/01/21 03:52:51;;;;;;;8.63;4.78;;;;;;;;;;5008552;28;20053;-60
2024/01/21 03:55:17;;;;;;;9.80;4.85;;;0.80;99.90;;;;;;5013023;28;20060;-60
2024/01/21 03:57:43;;;;;;;9.88;4.95;;;;;;;;;;5009706;28;20104;-60
2024/01/21 04:00:10;;;;;;;10.90;5.57;;;;;;;;;;5009070;28;20400;-60
2024/01/21 04:02:37;;;;;;;10.48;5.03;;;;;;;;;;5008108;28;20121;-60
2024/01/21 04:05:04;;;;;;;11.45;5.70;;;;;;;;;;5009447;28;20029;-60
2024/01/21 04:07:42;;;;;;;10.27;4.82;;;;;;;;;;5010980;28;20213;-60
2024/01/21 04:10:10;;;;;;;8.57;4.20;;;;;;;;;;5009219;28;20409;-60
2024/01/21 04:12:36;;;;;;;9.05;3.85;;;;;;;;;;5009567;28;20374;-60
2024/01/21 04:15:02;;;;;;;8.45;3.90;;;;;;;;;;4990640;28;20124;-60
2024/01/21 04:17:28;;;;;;;9.68;4.43;;;;;;;;;;5003454;28;20498;-61
2024/01/21 04:19:54;;;;;;;7.43;3.95;;;;;;;;;;5004522;28;20325;-60
2024/01/21 04:22:21;;;;;;;8.00;3.88;;;;;;;;;;5009852;28;20045;-61
2024/01/21 04:24:47;;;;;;;7.90;3.50;;;1.20;99.90;;;;;;5007906;28;20497;-61
2024/01/21 04:27:13;;;;;;;9.65;3.90;;;;;;;;;;5007304;28;20034;-60
2024/01/21 04:29:39;;;;;;;8.10;4.30;;;;;;;;;;5008022;28;20076;-60
2024/01/21 04:32:06;;;;;;;7.45;4.10;;;;;;;;;;5009594;28;20048;-59
2024/01/21 04:34:32;;;;;;;7.65;3.40;;;;;;;;;;5007818;28;20046;-61
2024/01/21 04:36:58;;;;;;;7.82;3.92;;;;;;;;;;5008769;28;20116;-61
2024/01/21 04:39:24;;;;;;;7.80;3.78;;;;;;;;;;5015138;28;20056;-61
2024/01/21 04:41:50;;;;;;;8.35;3.65;;;;;;;;;;5004322;28;20042;-60
2024/01/21 04:44:15;;;;;;;7.60;3.47;;;1.20;99.90;;;;;;5008668;28;20030;-61
2024/01/21 04:46:41;;;;;;;8.38;4.15;;;1.40;99.90;;;;;;5008485;28;20120;-60
2024/01/21 04:49:07;;;;;;;8.88;4.18;;;1.20;99.90;;;;;;5015498;28;20073;-60
2024/01/21 04:51:33;;;;;;;8.07;3.55;;;;;;;;;;5012645;28;20038;-60
2024/01/21 04:53:59;;;;;;;7.65;4.00;;;;;;;;;;5014983;28;20042;-60
2024/01/21 04:56:25;;;;;;;7.75;3.60;;;;;;;;;;5017119;28;20129;-61
2024/01/21 04:58:51;;;;;;;7.57;4.18;;;;;;;;;;5012548;28;20124;-60
2024/01/21 05:01:17;;;;;;;7.38;3.83;;;;;;;;;;5015430;28;20053;-60
2024/01/21 05:03:43;;;;;;;7.28;3.28;;;1.40;99.90;;;;;;5017009;28;20061;-60
2024/01/21 05:06:09;;;;;;;6.68;3.28;;;;;;;;;;5015716;28;20489;-61
2024/01/21 05:08:34;;;;;;;6.70;3.33;;;1.50;99.90;;;;;;5012783;28;20041;-60
2024/01/21 05:11:00;;;;;;;7.13;3.65;;;;;;;;;;5013649;28;20037;-61
2024/01/21 05:13:27;;;;;;;7.03;3.45;;;;;;;;;;5018117;28;20466;-61
2024/01/21 05:15:53;;;;;;;5.72;3.10;;;;;;;;;;5008652;28;20072;-61
2024/01/21 05:18:20;;;;;;;7.00;3.20;;;;;;;;;;5016780;28;20073;-61
2024/01/21 05:20:47;;;;;;;6.68;3.30;;;;;;;;;;5012265;28;20125;-60
2024/01/21 05:23:13;;;;;;;8.80;2.92;;;;;;;;;;5012476;28;20033;-60
2024/01/21 05:25:39;;;;;;;6.80;3.72;;;;;;;;;;5013223;28;20073;-60
2024/01/21 05:28:05;;;;;;;7.30;3.42;;;;;;;;;;5015409;28;20061;-61
2024/01/21 05:30:31;;;;;;;8.45;3.13;;;;;;;;;;5017869;28;20551;-60
2024/01/21 05:32:57;;;;;;;6.55;3.28;;;;;;;;;;5011995;28;20038;-60
2024/01/21 05:35:23;;;;;;;7.40;3.47;;;;;;;;;;5016604;28;20101;-60
2024/01/21 05:37:49;;;;;;;7.82;2.95;;;1.80;99.90;;;;;;5013305;28;20041;-61
2024/01/21 05:40:15;;;;;;;6.53;3.33;;;;;;;;;;5014569;28;20033;-61
2024/01/21 05:42:41;;;;;;;7.57;3.55;;;;;;;;;;5012234;28;20125;-59
2024/01/21 05:45:08;;;;;;;8.20;2.97;;;1.90;99.90;;;;;;5013393;28;20585;-61
2024/01/21 05:47:34;;;;;;;7.78;3.40;;;;;;;;;;5014101;28;20030;-60
2024/01/21 05:50:00;;;;;;;7.45;3.45;;;;;;;;;;5020202;28;20041;-60
2024/01/21 05:52:26;;;;;;;6.45;2.90;;;;;;;;;;5013196;28;20116;-58
2024/01/21 05:54:52;;;;;;;7.97;3.03;;;;;;;;;;5013673;28;20090;-60
2024/01/21 05:57:18;;;;;;;6.82;3.35;;;;;;;;;;5016130;28;20038;-60
2024/01/21 05:59:44;;;;;;;8.00;3.20;;;;;;;;;;5008654;28;20038;-60
2024/01/21 06:02:10;;;;;;;8.93;3.45;;;;;;;;;;5010333;28;20071;-60
2024/01/21 06:04:37;;;;;;;8.13;3.22;;;;;;;;;;5010358;28;20368;-61
2024/01/21 06:07:03;;;;;;;6.82;3.40;;;;;;;;;;5012671;28;20036;-60
2024/01/21 06:09:29;;;;;;;8.00;3.83;;;2.00;99.90;;;;;;5004999;28;20509;-61
2024/01/21 06:11:55;;;;;;;6.82;3.53;;;;;;;;;;5001739;28;20104;-60
2024/01/21 06:14:21;;;;;;;7.50;3.38;;;;;;;;;;5013076;28;20128;-60
2024/01/21 06:16:47;;;;;;;8.65;3.42;;;;;;;;;;5007989;28;20798;-60
2024/01/21 06:19:13;;;;;;;7.40;3.45;;;;;;;;;;5002627;28;20045;-60
2024/01/21 06:21:43;;;;;;;6.90;3.38;;;2.50;99.90;;;;;;5005098;28;20038;-58
2024/01/21 06:24:09;;;;;;;7.63;3.25;;;;;;;;;;5001672;28;20034;-59
2024/01/21 06:26:37;;;;;;;9.60;4.32;;;;;;;;;;5010595;28;20104;-60
2024/01/21 06:29:04;;;;;;;6.07;3.50;;;;;;;;;;5013596;28;20187;-60
2024/01/21 06:31:30;;;;;;;7.70;3.92;;;;;;;;;;5008126;28;20075;-61
2024/01/21 06:33:56;;;;;;;7.25;3.10;;;;;;;;;;5015173;28;20046;-60
2024/01/21 06:36:25;;;;;;;7.47;3.80;;;1.80;99.90;;;;;;5013098;28;20081;-59
2024/01/21 06:38:51;;;;;;;9.27;4.60;;;;;;;;;;4992832;28;20050;-59
2024/01/21 06:41:17;;;;;;;7.40;3.55;;;;;;;;;;5014333;28;20142;-60
2024/01/21 06:43:43;;;;;;;8.13;3.42;;;;;;;;;;5009552;28;20042;-59
2024/01/21 06:46:09;;;;;;;6.93;3.25;;;;;;;;;;5010310;28;20030;-60
2024/01/21 06:48:35;;;;;;;9.02;3.50;;;;;;;;;;5016644;28;20030;-60
2024/01/21 06:51:09;;;;;;;9.20;3.63;;;;;;;;;;5008744;28;20119;-60
2024/01/21 06:53:35;;;;;;;8.25;3.92;;;1.70;99.90;;;;;;5009882;28;20038;-59
2024/01/21 06:56:06;;;;;;;8.43;4.40;;;;;;;;;;5010391;28;20571;-60
2024/01/21 06:58:33;;;;;;;7.63;3.83;;;2.30;99.90;;;;;;5012643;28;20042;-59
2024/01/21 07:00:59;;;;;;;8.00;3.70;;;;;;;;;;5009259;28;20042;-60
2024/01/21 07:03:26;;;;;;;7.40;3.67;;;;;;;;;;5010233;28;20041;-60
2024/01/21 07:05:52;;;;;;;9.32;4.25;;;;;;;;;;5009697;28;20482;-61
2024/01/21 07:08:19;;;;;;;7.05;3.55;;;;;;;;;;5010783;28;20112;-61
2024/01/21 07:10:45;;;;;;;8.70;4.25;;;;;;;;;;5008643;28;20037;-61
2024/01/21 07:13:11;;;;;;;8.32;3.80;;;;;;;;;;5010940;28;20085;-60
2024/01/21 07:15:37;;;;;;;8.60;4.55;;;1.80;99.90;;;;;;5019160;28;20034;-61
2024/01/21 07:18:03;;;;;;;8.07;4.68;;;;;;;;;;5009822;28;20060;-61
2024/01/21 07:20:29;;;;;;;8.45;4.13;;;;;;;;;;5009456;28;20042;-60
2024/01/21 07:22:58;;;;;;;8.73;4.38;;;2.00;99.90;;;;;;4992719;28;20034;-60
2024/01/21 07:25:24;;;;;;;9.23;4.30;;;;;;;;;;5009318;28;20580;-60
2024/01/21 07:27:50;;;;;;;7.80;4.15;;;;;;;;;;4999958;28;20044;-61
2024/01/21 07:30:17;;;;;;;8.48;4.18;;;;;;;;;;5002972;28;20038;-61
2024/01/21 07:32:43;;;;;;;7.30;4.00;;;;;;;;;;5001852;28;20045;-60
2024/01/21 07:35:09;;;;;;;35.30;6.90;;;;;;;;;;5008805;28;20273;-60
2024/01/21 07:37:36;;;;;;;7.97;3.83;;;;;;;;;;5014582;28;20116;-61
2024/01/21 07:40:03;;;;;;;8.15;4.30;;;;;;;;;;5012867;28;20533;-60
2024/01/21 07:42:28;;;;;;;10.35;4.13;;;2.00;99.90;;;;;;5010362;28;20073;-60
2024/01/21 07:44:54;;;;;;;8.20;4.35;;;;;;;;;;5012001;28;20069;-61
2024/01/21 07:47:20;;;;;;;9.70;4.85;;;;;;;;;;5010124;28;20072;-61
2024/01/21 07:49:46;;;;;;;9.73;5.38;;;;;;;;;;5008002;28;20062;-59
2024/01/21 07:52:13;;;;;;;7.75;3.90;;;;;;;;;;5000782;28;20064;-59
2024/01/21 07:54:39;;;;;;;10.45;4.70;;;;;;;;;;4995202;28;20133;-60
2024/01/21 07:57:05;;;;;;;9.45;4.72;;;;;;;;;;4998810;28;20042;-59
2024/01/21 07:59:31;;;;;;;8.90;4.40;;;;;;;;;;5003430;28;20539;-59
2024/01/21 08:01:57;;;;;;;8.52;4.43;;;;;;;;;;5010570;28;20060;-60
2024/01/21 08:04:23;;;;;;;10.25;5.35;;;;;;;;;;5005569;28;20037;-60
2024/01/21 08:06:49;;;;;;;8.15;3.97;;;;;;;;;;4999857;28;20386;-59
2024/01/21 08:09:15;;;;;;;9.35;4.72;;;;;;;;;;5003090;28;20034;-61
2024/01/21 08:11:42;;;;;;;9.85;5.30;;;;;;;;;;5005129;28;20045;-60
2024/01/21 08:14:08;;;;;;;9.93;4.38;;;;;;;;;;5003809;28;20080;-60
2024/01/21 08:16:34;;;;;;;12.55;5.65;;;;;;;;;;5009217;28;20065;-61
2024/01/21 08:19:00;;;;;;;10.10;4.85;;;;;;;;;;5000661;28;20136;-61
2024/01/21 08:21:26;;;;;;;11.30;5.75;;;;;;;;;;5003894;28;20498;-61
2024/01/21 08:23:52;;;;;;;10.48;5.18;;;;;;;;;;5003565;28;20108;-60
2024/01/21 08:26:18;;;;;;;9.15;4.90;;;;;;;;;;5004041;28;20088;-60
2024/01/21 08:28:44;;;;;;;9.68;4.85;;;;;;;;;;4997655;28;20461;-60
2024/01/21 08:31:11;;;;;;;10.50;5.78;;;;;;;;;;5013356;28;20060;-61
2024/01/21 08:33:37;;;;;;;11.63;5.57;;;;;;;;;;5008266;28;20104;-61
2024/01/21 08:36:04;;;;;;;9.35;5.15;;;;;;;;;;5005650;28;20045;-60
2024/01/21 08:38:30;;;;;;;10.80;5.38;;;;;;;;;;5001890;28;20053;-61
2024/01/21 08:40:55;;;;;;;8.52;4.82;;;1.90;99.90;;;;;;4987415;28;20041;-60
2024/01/21 08:43:21;;;;;;;10.13;5.57;;;2.00;99.90;;;;;;5000811;28;20390;-60
2024/01/21 08:45:47;;;;;;;10.57;5.63;;;;;;;;;;5001353;28;20118;-60
2024/01/21 08:48:13;;;;;;;8.63;4.95;;;;;;;;;;5002336;28;20043;-60
2024/01/21 08:50:40;;;;;;;10.35;5.30;;;;;;;;;;5004310;28;20049;-59
2024/01/21 08:53:06;;;;;;;10.10;5.55;;;;;;;;;;5001064;28;20065;-61
2024/01/21 08:55:32;;;;;;;9.38;5.15;;;;;;;;;;4993091;28;20049;-59
2024/01/21 08:57:58;;;;;;;13.23;5.35;;;;;;;;;;5000800;28;20034;-60
2024/01/21 09:00:24;;;;;;;9.05;5.05;;;;;;;;;;5003458;28;20041;-60
2024/01/21 09:02:50;;;;;;;12.13;5.80;;;;;;;;;;5000808;28;20233;-60
2024/01/21 09:05:16;;;;;;;12.43;5.05;;;;;;;;;;5002222;28;20042;-60
2024/01/21 09:07:42;;;;;;;11.07;6.18;;;2.30;99.90;;;;;;5002444;28;20080;-60
2024/01/21 09:10:08;;;;;;;11.02;5.35;;;;;;;;;;5008183;28;20034;-60
2024/01/21 09:12:35;;;;;;;9.80;5.63;;;;;;;;;;5008727;28;20399;-60
2024/01/21 09:15:02;;;;;;;9.57;5.85;;;2.50;99.90;;;;;;5005987;28;20054;-60
2024/01/21 09:17:28;;;;;;;9.68;6.15;;;;;;;;;;5006334;28;20041;-59
2024/01/21 09:19:54;;;;;;;10.60;5.97;;;2.50;99.90;;;;;;5008598;28;20045;-60
2024/01/21 09:22:20;;;;;;;13.27;5.82;;;;;;;;;;5008477;28;20092;-60
2024/01/21 09:24:47;;;;;;;10.20;5.07;;;;;;;;;;5007223;28;20490;-60
2024/01/21 09:27:14;;;;;;;11.02;6.43;;;;;;;;;;4999915;28;20130;-60
2024/01/21 09:29:40;;;;;;;12.70;5.05;;;;;;;;;;5002459;28;20045;-61
2024/01/21 09:32:06;;;;;;;10.48;5.95;;;;;;;;;;5000759;28;20529;-61
2024/01/21 09:34:32;;;;;;;9.38;5.50;;;;;;;;;;5003905;28;20073;-61
2024/01/21 09:36:58;;;;;;;12.27;6.18;;;;;;;;;;5006571;28;20073;-59
2024/01/21 09:39:25;;;;;;;10.70;6.05;;;2.80;99.90;;;;;;5000028;28;20415;-59
2024/01/21 09:41:52;;;;;;;9.60;4.82;;;;;;;;;;5002498;28;20042;-60
2024/01/21 09:44:18;;;;;;;11.25;5.68;;;;;;;;;;5007884;28;20417;-59
2024/01/21 09:46:44;;;;;;;10.55;6.30;;;;;;;;;;5008864;28;20030;-60
2024/01/21 09:49:11;;;;;;;10.70;4.88;;;;;;;;;;5013576;28;20069;-59
2024/01/21 09:51:38;;;;;;;10.20;6.38;;;;;;;;;;5005427;28;20034;-59
2024/01/21 09:54:06;;;;;;;11.02;6.65;;;;;;;;;;5012720;28;20121;-60
2024/01/21 09:56:33;;;;;;;10.23;5.80;;;;;;;;;;5011770;28;20056;-59
2024/01/21 09:58:59;;;;;;;10.25;5.07;;;;;;;;;;5010479;28;20053;-59
2024/01/21 10:01:25;;;;;;;9.50;5.38;;;;;;;;;;5007099;28;20092;-59
2024/01/21 10:03:51;;;;;;;10.02;5.55;;;;;;;;;;5009225;28;20458;-60
2024/01/21 10:06:17;;;;;;;9.90;5.55;;;;;;;;;;5007423;28;20501;-60
2024/01/21 10:08:43;;;;;;;12.18;6.25;;;;;;;;;;5009723;28;20116;-59
2024/01/21 10:11:10;;;;;;;12.32;5.70;;;;;;;;;;5009114;28;20477;-59
2024/01/21 10:13:38;;;;;;;10.95;5.82;;;;;;;;;;5008253;28;20062;-59
2024/01/21 10:16:07;;;;;;;11.20;5.68;;;;;;;;;;5010570;28;20053;-60
2024/01/21 10:18:34;;;;;;;11.63;5.35;;;;;;;;;;5012909;28;20084;-60
2024/01/21 10:21:04;;;;;;;11.63;6.20;;;2.80;99.90;;;;;;4997334;28;20212;-60
2024/01/21 10:23:30;;;;;;;11.02;6.03;;;;;;;;;;5003359;28;20042;-60
2024/01/21 10:25:56;;;;;;;11.30;5.88;;;;;;;;;;5007731;28;20068;-60
2024/01/21 10:28:23;;;;;;;10.18;5.57;;;;;;;;;;5008764;28;20077;-60
2024/01/21 10:30:49;;;;;;;12.60;6.05;;;;;;;;;;5008182;28;20115;-60
2024/01/21 10:33:15;;;;;;;12.27;6.50;;;;;;;;;;5008575;28;20042;-60
2024/01/21 10:35:42;;;;;;;11.90;6.75;;;;;;;;;;5000488;28;20046;-60
2024/01/21 10:38:11;;;;;;;11.32;6.55;;;3.80;99.90;;;;;;4989023;28;20115;-60
2024/01/21 10:40:44;;;;;;;9.77;5.50;;;;;;;;;;5009923;28;20049;-60
2024/01/21 10:43:12;;;;;;;9.40;6.20;;;;;;;;;;5007439;28;20121;-60
2024/01/21 10:45:38;;;;;;;10.73;5.45;;;;;;;;;;5003093;28;20050;-59
2024/01/21 10:48:06;;;;;;;12.13;6.95;;;;;;;;;;5008289;28;20033;-60
2024/01/21 10:50:31;;;;;;;13.30;6.40;;;3.40;99.90;;;;;;5005371;28;20173;-60
2024/01/21 10:52:57;;;;;;;13.73;6.82;;;;;;;;;;5009336;28;20132;-60
2024/01/21 10:55:23;;;;;;;13.55;6.03;;;2.70;99.90;;;;;;5007849;28;20077;-61
2024/01/21 10:57:50;;;;;;;11.02;6.93;;;;;;;;;;4996581;28;20062;-59
2024/01/21 11:00:17;;;;;;;11.98;8.13;;;;;;;;;;5009137;28;20069;-61
2024/01/21 11:03:03;;;;;;;10.98;7.20;;;;;;;;;;5007495;28;20077;-60
2024/01/21 11:05:29;;;;;;;12.52;6.10;;;;;;;;;;5007864;28;20074;-60
2024/01/21 11:08:02;;;;;;;12.30;7.07;;;;;;;;;;5010408;28;20046;-61
2024/01/21 11:10:27;;;;;;;10.88;7.15;;;3.40;99.90;;;;;;5005568;28;20038;-60
2024/01/21 11:12:59;;;;;;;10.68;6.65;;;;;;;;;;5003519;28;20045;-60
2024/01/21 11:15:32;;;;;;;11.20;6.47;;;;;;;;;;5001612;28;20169;-59
2024/01/21 11:18:11;;;;;;;12.98;6.75;;;;;;;;;;5007111;28;20117;-60
2024/01/21 11:20:39;;;;;;;12.27;7.47;;;;;;;;;;4992622;28;20053;-60
2024/01/21 11:23:14;;;;;;;12.55;6.97;;;3.80;99.90;;;;;;5001428;28;20091;-60
2024/01/21 11:25:50;;;;;;;12.48;6.82;;;3.30;99.90;;;;;;4997609;28;20512;-59
2024/01/21 11:28:29;;;;;;;10.68;6.32;;;3.30;99.90;;;;;;5005786;28;20025;-60
2024/01/21 11:31:07;;;;;;;11.93;7.50;;;;;;;;;;5001149;28;20033;-60
2024/01/21 11:33:33;;;;;;;13.35;8.00;;;;;;;;;;4998731;28;20041;-61
2024/01/21 11:36:00;;;;;;;17.20;7.75;;;3.60;99.90;;;;;;5009719;28;20073;-60
2024/01/21 11:38:27;;;;;;;15.55;7.13;;;;;;;;;;5000654;28;20116;-61
2024/01/21 11:41:07;;;;;;;13.07;8.23;;;;;;;;;;5003478;28;20274;-60
2024/01/21 11:43:33;;;;;;;14.10;7.68;;;;;;;;;;4991385;28;20573;-61
2024/01/21 11:46:00;;;;;;;16.85;8.38;;;;;;;;;;5005746;28;20045;-61
2024/01/21 11:48:29;;;;;;;14.90;8.07;;;;;;;;;;4999059;28;20049;-61
2024/01/21 11:50:56;;;;;;;15.68;8.60;;;;;;;;;;5004470;28;20089;-61
2024/01/21 11:53:22;;;;;;;16.85;8.35;;;;;;;;;;4998726;28;20124;-61
2024/01/21 11:55:48;;;;;;;16.23;8.88;;;;;;;;;;5007484;28;20528;-60
2024/01/21 11:58:15;;;;;;;17.52;7.95;;;;;;;;;;4998951;28;20493;-61
2024/01/21 12:00:41;;;;;;;16.10;8.80;;;;;;;;;;5003524;28;20053;-62
2024/01/21 12:03:07;;;;;;;14.05;7.85;;;3.70;99.90;;;;;;4997005;28;20451;-61
2024/01/21 12:05:35;;;;;;;19.52;9.50;;;;;;;;;;5003660;28;20104;-61
2024/01/21 12:08:01;;;;;;;19.52;8.80;;;;;;;;;;5000251;28;20042;-62
2024/01/21 12:10:28;;;;;;;15.70;8.10;;;;;;;;;;5002521;28;20037;-62
2024/01/21 12:12:53;;;;;;;16.48;9.60;;;;;;;;;;5006761;28;20124;-60
2024/01/21 12:15:19;;;;;;;15.55;8.43;;;;;;;;;;5008950;28;20553;-60
2024/01/21 12:17:54;;;;;;;14.57;9.13;;;4.00;99.90;;;;;;5008611;28;20034;-59
2024/01/21 12:20:21;;;;;;;18.02;9.63;;;;;;;;;;4981057;28;20056;-61
2024/01/21 12:22:46;;;;;;;15.60;9.02;;;3.90;99.90;;;;;;5004506;28;20122;-61
2024/01/21 12:25:12;;;;;;;16.65;9.88;;;;;;;;;;5006648;28;20046;-61
2024/01/21 12:27:44;;;;;;;14.80;8.40;;;;;;;;;;5007490;28;20042;-61
2024/01/21 12:30:13;;;;;;;19.55;11.23;;;;;;;;;;4997009;28;20053;-62
2024/01/21 12:32:41;;;;;;;14.85;8.98;;;;;;;;;;5002460;28;20124;-60
2024/01/21 12:35:07;;;;;;;14.25;9.10;;;;;;;;;;5044134;23;20168;-63
2024/01/21 12:37:34;;;;;;;15.60;11.07;;;4.00;99.90;;;;;;4964830;28;20507;-62
2024/01/21 12:40:00;;;;;;;15.70;9.10;;;;;;;;;;4968691;28;20038;-62
2024/01/21 12:42:27;;;;;;;15.35;9.93;;;;;;;;;;4968154;28;20562;-60
2024/01/21 12:44:53;;;;;;;16.23;9.75;;;;;;;;;;4968417;28;20562;-60
2024/01/21 12:47:22;;;;;;;16.55;9.40;;;;;;;;;;4970180;28;20110;-59
2024/01/21 12:49:47;;;;;;;16.92;10.70;;;4.20;99.90;;;;;;4964928;28;20039;-59
2024/01/21 12:52:13;;;;;;;16.98;10.75;;;;;;;;;;4965965;28;20585;-60
2024/01/21 12:54:39;;;;;;;17.15;10.77;;;;;;;;;;4968722;28;20042;-60
2024/01/21 12:57:06;;;;;;;20.80;10.77;;;;;;;;;;4968591;28;20062;-60
2024/01/21 12:59:32;;;;;;;19.60;9.65;;;;;;;;;;4966130;28;20039;-60
2024/01/21 13:01:58;;;;;;;17.48;10.63;;;4.00;99.90;;;;;;4962405;28;20049;-60
2024/01/21 13:04:24;;;;;;;18.17;11.00;;;;;;;;;;4966463;28;20038;-60
2024/01/21 13:06:50;;;;;;;16.60;10.27;;;;;;;;;;4967159;28;20041;-59
2024/01/21 13:09:16;;;;;;;15.60;10.63;;;;;;;;;;4971200;28;20055;-60
2024/01/21 13:11:42;;;;;;;18.90;10.57;;;;;;;;;;4971694;28;20050;-59
2024/01/21 13:14:08;;;;;;;15.48;9.48;;;;;;;;;;4966860;28;20039;-59
2024/01/21 13:16:34;;;;;;;18.67;10.20;;;;;;;;;;4967219;28;20473;-59
2024/01/21 13:19:00;;;;;;;21.60;10.27;;;4.00;99.90;;;;;;4973865;28;20038;-63
2024/01/21 13:21:26;;;;;;;18.25;12.05;;;;;;;;;;4971066;28;20039;-63
2024/01/21 13:23:52;;;;;;;17.70;10.60;;;;;;;;;;4969571;28;20521;-60
2024/01/21 13:26:19;;;;;;;17.90;10.63;;;;;;;;;;4971861;28;20038;-59
2024/01/21 13:31:30;;;;;;;16.25;10.18;;;;;;;;;;4971104;28;20498;-59
2024/01/21 13:33:57;;;;;;;16.65;9.48;;;;;;;;;;4972416;28;20077;-59
2024/01/21 13:36:22;;;;;;;18.17;9.77;;;4.00;99.90;;;;;;4967246;28;20493;-60
2024/01/21 13:38:48;;;;;;;18.58;10.10;;;;;;;;;;4969720;28;20116;-59
2024/01/21 13:41:14;;;;;;;15.30;8.82;;;;;;;;;;4971685;28;20039;-60
2024/01/21 13:43:40;;;;;;;19.27;9.55;;;;;;;;;;4966233;28;20049;-59
2024/01/21 13:46:07;;;;;;;17.00;9.95;;;;;;;;;;4969344;28;20037;-60
2024/01/21 13:48:33;;;;;;;16.85;9.68;;;;;;;;;;4978412;22;20557;-60
2024/01/21 13:51:00;;;;;;;18.40;9.18;;;;;;;;;;5015562;28;20128;-61
2024/01/21 13:53:26;;;;;;;21.58;9.90;;;;;;;;;;5021658;28;20124;-61
2024/01/21 13:55:52;;;;;;;16.45;10.15;;;;;;;;;;5006364;28;20564;-61
2024/01/21 13:58:19;;;;;;;16.95;10.02;;;;;;;;;;5018148;28;20050;-61
2024/01/21 14:00:45;;;;;;;16.73;9.25;;;;;;;;;;5013854;28;20546;-61
2024/01/21 14:03:11;;;;;;;14.82;9.10;;;4.40;99.90;;;;;;5012813;28;20049;-61
2024/01/21 14:05:38;;;;;;;17.73;9.13;;;;;;;;;;5018408;28;20148;-61
2024/01/21 14:08:05;;;;;;;14.45;8.13;;;;;;;;;;5017908;28;20037;-61
2024/01/21 14:10:31;;;;;;;20.55;11.02;;;;;;;;;;5015276;28;20042;-61
2024/01/21 14:12:57;;;;;;;17.45;9.85;;;;;;;;;;5017912;28;20063;-61
2024/01/21 14:15:23;;;;;;;17.77;10.27;;;;;;;;;;5013915;28;20497;-61